Star Epsilon — V7NZ7 — position and weather

sailwx.info

Track history (hours):
 
Tides and Currents Weather Stations Pressure Air Temp Water Temp Dewpoint Dewpoint Depression Visibility Wind Speed Wind Dir Waves Ship Positions

Star Epsilon

Last reported at 2014-Oct-24 15:33 UTC. Time now 2014-Oct-26 03:42 UTC.
Position N 39°30' W 073°49'.

Length 189 m; draft 6.5 m.

Type: Cargo ship. MMSI: 538003043.

Date/timePositionNaut miles runAvg speedWind from/ knotsBaromVisibWave heightAir tempDewpointWater temp
2014-Oct-24 15:33N 39°30' W 073°49'1414.1
2014-Oct-24 14:33N 39°44' W 073°49'3313.9
2014-Oct-24 12:09N 40°18' W 073°48'1012.6
2014-Oct-24 11:21N 40°28' W 073°51'911.9
2014-Oct-24 10:33N 40°32' W 074°01'6 5.6
2014-Oct-24 09:30N 40°38' W 074°04'0 0.1
2014-Oct-24 08:33N 40°38' W 074°04'0 0.0
2014-Oct-24 07:33N 40°38' W 074°04'0 0.0
2014-Oct-24 06:33N 40°38' W 074°04'0 0.0
2014-Oct-24 05:33N 40°38' W 074°04'4 4.0
2014-Oct-24 04:33N 40°42' W 074°02'  
2014-Oct-16 17:11N 41°15' W 073°58'24 8.3
2014-Oct-16 14:17N 40°51' W 073°57'6 8.2
2014-Oct-16 13:33N 40°46' W 074°01'8 8.3
2014-Oct-16 12:33N 40°37' W 074°04'0 0.0
2014-Oct-16 11:28N 40°38' W 074°04'0 0.2
2014-Oct-16 10:13N 40°38' W 074°04'0 0.1
2014-Oct-16 08:07N 40°38' W 074°04'0 0.0
2014-Oct-16 05:07N 40°38' W 074°04'0 0.1
2014-Oct-16 03:10N 40°38' W 074°04'0 0.2
2014-Oct-16 02:16N 40°38' W 074°04'0 0.0
2014-Oct-16 01:07N 40°38' W 074°04'0 0.0
2014-Oct-15 23:31N 40°38' W 074°04'0 0.1
2014-Oct-15 21:22N 40°38' W 074°04'0 0.2
2014-Oct-15 20:31N 40°38' W 074°04'0 0.0
2014-Oct-15 19:25N 40°38' W 074°04'0 0.0
2014-Oct-15 18:31N 40°38' W 074°04'0 0.0
2014-Oct-15 17:25N 40°38' W 074°04'0 0.0
2014-Oct-15 16:31N 40°38' W 074°04'0 0.1
2014-Oct-15 15:25N 40°38' W 074°04'0 0.0
2014-Oct-15 14:31N 40°38' W 074°04'0 0.1
2014-Oct-15 12:04N 40°38' W 074°04'0 0.0
2014-Oct-15 11:13N 40°38' W 074°04'0 0.1
2014-Oct-15 10:31N 40°38' W 074°04'0 0.0
2014-Oct-15 09:25N 40°38' W 074°04'0 0.3
2014-Oct-15 08:31N 40°38' W 074°04'0 0.0
2014-Oct-15 07:31N 40°38' W 074°04'0 0.0
2014-Oct-15 06:28N 40°38' W 074°04'0 0.0
2014-Oct-15 05:25N 40°38' W 074°04'0 0.0
2014-Oct-15 04:31N 40°38' W 074°04'0 0.0
2014-Oct-15 03:31N 40°38' W 074°04'0 0.1
2014-Oct-15 02:31N 40°38' W 074°04'0 0.1
2014-Oct-15 00:16N 40°38' W 074°04'0 0.0
2014-Oct-14 23:31N 40°38' W 074°04'0 0.0
2014-Oct-14 22:28N 40°38' W 074°04'0 0.1
2014-Oct-14 21:31N 40°38' W 074°04'0 0.1
2014-Oct-14 20:28N 40°38' W 074°04'0 0.1
2014-Oct-14 19:16N 40°38' W 074°04'0 0.0
2014-Oct-14 18:31N 40°38' W 074°04'0 0.0
2014-Oct-14 17:31N 40°38' W 074°04'0 0.0
2014-Oct-14 16:31N 40°38' W 074°04'  
Track history (hours):
 
Tides and Currents Weather Stations Pressure Air Temp Water Temp Dewpoint Dewpoint Depression Visibility Wind Speed Wind Dir Waves Ship Positions

Star Epsilon

Last reported at 2014-Oct-24 15:33 UTC. Time now 2014-Oct-26 03:42 UTC.
Position N 39°30' W 073°49'.

Length 189 m; draft 6.5 m.

Type: Cargo ship. MMSI: 538003043.

Date/timePositionNaut miles runAvg speedWind from/ knotsBaromVisibWave heightAir tempDewpointWater temp
2014-Oct-24 15:33N 39°30' W 073°49'1414.1
2014-Oct-24 14:33N 39°44' W 073°49'3313.9
2014-Oct-24 12:09N 40°18' W 073°48'1012.6
2014-Oct-24 11:21N 40°28' W 073°51'911.9
2014-Oct-24 10:33N 40°32' W 074°01'6 5.6
2014-Oct-24 09:30N 40°38' W 074°04'0 0.1
2014-Oct-24 08:33N 40°38' W 074°04'0 0.0
2014-Oct-24 07:33N 40°38' W 074°04'0 0.0
2014-Oct-24 06:33N 40°38' W 074°04'0 0.0
2014-Oct-24 05:33N 40°38' W 074°04'4 4.0
2014-Oct-24 04:33N 40°42' W 074°02'  
2014-Oct-16 17:11N 41°15' W 073°58'24 8.3
2014-Oct-16 14:17N 40°51' W 073°57'6 8.2
2014-Oct-16 13:33N 40°46' W 074°01'8 8.3
2014-Oct-16 12:33N 40°37' W 074°04'0 0.0
2014-Oct-16 11:28N 40°38' W 074°04'0 0.2
2014-Oct-16 10:13N 40°38' W 074°04'0 0.1
2014-Oct-16 08:07N 40°38' W 074°04'0 0.0
2014-Oct-16 05:07N 40°38' W 074°04'0 0.1
2014-Oct-16 03:10N 40°38' W 074°04'0 0.2
2014-Oct-16 02:16N 40°38' W 074°04'0 0.0
2014-Oct-16 01:07N 40°38' W 074°04'0 0.0
2014-Oct-15 23:31N 40°38' W 074°04'0 0.1
2014-Oct-15 21:22N 40°38' W 074°04'0 0.2
2014-Oct-15 20:31N 40°38' W 074°04'0 0.0
2014-Oct-15 19:25N 40°38' W 074°04'0 0.0
2014-Oct-15 18:31N 40°38' W 074°04'0 0.0
2014-Oct-15 17:25N 40°38' W 074°04'0 0.0
2014-Oct-15 16:31N 40°38' W 074°04'0 0.1
2014-Oct-15 15:25N 40°38' W 074°04'0 0.0
2014-Oct-15 14:31N 40°38' W 074°04'0 0.1
2014-Oct-15 12:04N 40°38' W 074°04'0 0.0
2014-Oct-15 11:13N 40°38' W 074°04'0 0.1
2014-Oct-15 10:31N 40°38' W 074°04'0 0.0
2014-Oct-15 09:25N 40°38' W 074°04'0 0.3
2014-Oct-15 08:31N 40°38' W 074°04'0 0.0
2014-Oct-15 07:31N 40°38' W 074°04'0 0.0
2014-Oct-15 06:28N 40°38' W 074°04'0 0.0
2014-Oct-15 05:25N 40°38' W 074°04'0 0.0
2014-Oct-15 04:31N 40°38' W 074°04'0 0.0
2014-Oct-15 03:31N 40°38' W 074°04'0 0.1
2014-Oct-15 02:31N 40°38' W 074°04'0 0.1
2014-Oct-15 00:16N 40°38' W 074°04'0 0.0
2014-Oct-14 23:31N 40°38' W 074°04'0 0.0
2014-Oct-14 22:28N 40°38' W 074°04'0 0.1
2014-Oct-14 21:31N 40°38' W 074°04'0 0.1
2014-Oct-14 20:28N 40°38' W 074°04'0 0.1
2014-Oct-14 19:16N 40°38' W 074°04'0 0.0
2014-Oct-14 18:31N 40°38' W 074°04'0 0.0
2014-Oct-14 17:31N 40°38' W 074°04'0 0.0
2014-Oct-14 16:31N 40°38' W 074°04'  

Dump ship's entire track history